sensor_id;sensor_type;location;lat;lon;timestamp;P1;durP1;ratioP1;P2;durP2;ratioP2
78183;SDS011;67442;44.570;18.610;2024-03-02T00:01:45;54.05;;;19.33;;
78183;SDS011;67442;44.570;18.610;2024-03-02T00:04:13;35.22;;;14.10;;
78183;SDS011;67442;44.570;18.610;2024-03-02T00:06:40;34.88;;;12.00;;
78183;SDS011;67442;44.570;18.610;2024-03-02T00:09:08;49.55;;;13.35;;
78183;SDS011;67442;44.570;18.610;2024-03-02T00:11:37;83.07;;;31.65;;
78183;SDS011;67442;44.570;18.610;2024-03-02T00:14:04;97.82;;;35.63;;
78183;SDS011;67442;44.570;18.610;2024-03-02T00:16:32;109.63;;;38.65;;
78183;SDS011;67442;44.570;18.610;2024-03-02T00:19:03;171.52;;;54.90;;
78183;SDS011;67442;44.570;18.610;2024-03-02T00:21:31;318.40;;;95.28;;
78183;SDS011;67442;44.570;18.610;2024-03-02T00:23:59;130.27;;;42.45;;
78183;SDS011;67442;44.570;18.610;2024-03-02T00:26:28;83.55;;;28.08;;
78183;SDS011;67442;44.570;18.610;2024-03-02T00:28:56;68.78;;;25.92;;
78183;SDS011;67442;44.570;18.610;2024-03-02T00:31:24;89.95;;;32.03;;
78183;SDS011;67442;44.570;18.610;2024-03-02T00:33:51;111.15;;;41.17;;
78183;SDS011;67442;44.570;18.610;2024-03-02T00:36:24;119.25;;;45.92;;
78183;SDS011;67442;44.570;18.610;2024-03-02T00:38:53;111.00;;;41.15;;
78183;SDS011;67442;44.570;18.610;2024-03-02T00:41:24;92.55;;;33.47;;
78183;SDS011;67442;44.570;18.610;2024-03-02T00:46:21;108.95;;;37.22;;
78183;SDS011;67442;44.570;18.610;2024-03-02T00:48:55;109.78;;;37.83;;
78183;SDS011;67442;44.570;18.610;2024-03-02T00:51:24;93.80;;;34.87;;
78183;SDS011;67442;44.570;18.610;2024-03-02T00:53:52;110.95;;;40.53;;
78183;SDS011;67442;44.570;18.610;2024-03-02T00:56:22;102.90;;;36.42;;
78183;SDS011;67442;44.570;18.610;2024-03-02T00:58:49;91.72;;;31.92;;
78183;SDS011;67442;44.570;18.610;2024-03-02T01:01:17;42.30;;;14.95;;
78183;SDS011;67442;44.570;18.610;2024-03-02T01:03:45;32.15;;;12.90;;
78183;SDS011;67442;44.570;18.610;2024-03-02T01:06:12;40.80;;;15.32;;
78183;SDS011;67442;44.570;18.610;2024-03-02T01:08:39;34.22;;;13.50;;
78183;SDS011;67442;44.570;18.610;2024-03-02T01:11:07;39.17;;;14.73;;
78183;SDS011;67442;44.570;18.610;2024-03-02T01:13:34;47.17;;;18.20;;
78183;SDS011;67442;44.570;18.610;2024-03-02T01:16:01;46.65;;;19.33;;
78183;SDS011;67442;44.570;18.610;2024-03-02T01:18:28;54.88;;;22.27;;
78183;SDS011;67442;44.570;18.610;2024-03-02T01:20:56;58.17;;;22.58;;
78183;SDS011;67442;44.570;18.610;2024-03-02T01:23:24;60.50;;;22.30;;
78183;SDS011;67442;44.570;18.610;2024-03-02T01:25:51;51.88;;;20.83;;
78183;SDS011;67442;44.570;18.610;2024-03-02T01:28:19;53.67;;;20.13;;
78183;SDS011;67442;44.570;18.610;2024-03-02T01:30:48;50.28;;;19.17;;
78183;SDS011;67442;44.570;18.610;2024-03-02T01:33:16;50.65;;;21.20;;
78183;SDS011;67442;44.570;18.610;2024-03-02T01:35:44;83.25;;;28.42;;
78183;SDS011;67442;44.570;18.610;2024-03-02T01:38:11;203.38;;;56.92;;
78183;SDS011;67442;44.570;18.610;2024-03-02T01:40:37;242.40;;;67.20;;
78183;SDS011;67442;44.570;18.610;2024-03-02T01:43:04;79.72;;;27.77;;
78183;SDS011;67442;44.570;18.610;2024-03-02T01:45:33;78.35;;;24.55;;
78183;SDS011;67442;44.570;18.610;2024-03-02T01:48:01;67.25;;;25.83;;
78183;SDS011;67442;44.570;18.610;2024-03-02T01:50:31;67.57;;;25.65;;
78183;SDS011;67442;44.570;18.610;2024-03-02T01:52:58;78.07;;;30.90;;
78183;SDS011;67442;44.570;18.610;2024-03-02T01:55:26;70.80;;;26.02;;
78183;SDS011;67442;44.570;18.610;2024-03-02T01:57:55;70.28;;;27.13;;
78183;SDS011;67442;44.570;18.610;2024-03-02T02:00:23;75.40;;;28.67;;
78183;SDS011;67442;44.570;18.610;2024-03-02T02:02:52;108.90;;;38.38;;
78183;SDS011;67442;44.570;18.610;2024-03-02T02:05:19;80.78;;;30.08;;
78183;SDS011;67442;44.570;18.610;2024-03-02T02:07:46;105.50;;;38.60;;
78183;SDS011;67442;44.570;18.610;2024-03-02T02:10:13;109.10;;;43.25;;
78183;SDS011;67442;44.570;18.610;2024-03-02T02:12:40;119.28;;;44.22;;
78183;SDS011;67442;44.570;18.610;2024-03-02T02:15:23;98.07;;;37.00;;
78183;SDS011;67442;44.570;18.610;2024-03-02T02:17:51;80.82;;;29.88;;
78183;SDS011;67442;44.570;18.610;2024-03-02T02:20:18;88.13;;;32.63;;
78183;SDS011;67442;44.570;18.610;2024-03-02T02:23:19;81.95;;;31.58;;
78183;SDS011;67442;44.570;18.610;2024-03-02T02:25:39;76.32;;;31.92;;
78183;SDS011;67442;44.570;18.610;2024-03-02T02:28:06;92.95;;;34.85;;
78183;SDS011;67442;44.570;18.610;2024-03-02T02:30:34;129.85;;;44.72;;
78183;SDS011;67442;44.570;18.610;2024-03-02T02:33:01;72.65;;;30.45;;
78183;SDS011;67442;44.570;18.610;2024-03-02T02:35:28;82.13;;;31.83;;
78183;SDS011;67442;44.570;18.610;2024-03-02T02:37:56;81.40;;;29.42;;
78183;SDS011;67442;44.570;18.610;2024-03-02T02:40:43;78.28;;;31.83;;
78183;SDS011;67442;44.570;18.610;2024-03-02T02:43:11;67.38;;;26.05;;
78183;SDS011;67442;44.570;18.610;2024-03-02T02:45:38;49.65;;;19.67;;
78183;SDS011;67442;44.570;18.610;2024-03-02T02:48:05;39.13;;;16.50;;
78183;SDS011;67442;44.570;18.610;2024-03-02T02:50:33;40.47;;;15.82;;
78183;SDS011;67442;44.570;18.610;2024-03-02T02:53:01;47.90;;;16.63;;
78183;SDS011;67442;44.570;18.610;2024-03-02T02:55:28;50.90;;;20.73;;
78183;SDS011;67442;44.570;18.610;2024-03-02T02:57:55;61.47;;;24.65;;
78183;SDS011;67442;44.570;18.610;2024-03-02T03:00:23;58.38;;;22.08;;
78183;SDS011;67442;44.570;18.610;2024-03-02T03:02:50;64.95;;;23.73;;
78183;SDS011;67442;44.570;18.610;2024-03-02T03:05:18;61.50;;;21.88;;
78183;SDS011;67442;44.570;18.610;2024-03-02T03:07:45;59.55;;;22.00;;
78183;SDS011;67442;44.570;18.610;2024-03-02T03:10:15;57.28;;;20.83;;
78183;SDS011;67442;44.570;18.610;2024-03-02T03:12:43;64.22;;;24.10;;
78183;SDS011;67442;44.570;18.610;2024-03-02T03:15:10;57.83;;;22.05;;
78183;SDS011;67442;44.570;18.610;2024-03-02T03:17:38;49.10;;;20.00;;
78183;SDS011;67442;44.570;18.610;2024-03-02T03:20:05;48.85;;;19.67;;
78183;SDS011;67442;44.570;18.610;2024-03-02T03:22:37;50.55;;;21.40;;
78183;SDS011;67442;44.570;18.610;2024-03-02T03:25:05;64.93;;;23.38;;
78183;SDS011;67442;44.570;18.610;2024-03-02T03:27:33;62.67;;;22.15;;
78183;SDS011;67442;44.570;18.610;2024-03-02T03:30:01;56.65;;;21.80;;
78183;SDS011;67442;44.570;18.610;2024-03-02T03:32:29;61.75;;;22.05;;
78183;SDS011;67442;44.570;18.610;2024-03-02T03:34:56;73.10;;;24.40;;
78183;SDS011;67442;44.570;18.610;2024-03-02T03:37:23;83.65;;;28.08;;
78183;SDS011;67442;44.570;18.610;2024-03-02T03:40:07;64.25;;;20.65;;
78183;SDS011;67442;44.570;18.610;2024-03-02T03:42:45;60.03;;;19.67;;
78183;SDS011;67442;44.570;18.610;2024-03-02T03:45:12;57.72;;;19.63;;
78183;SDS011;67442;44.570;18.610;2024-03-02T03:47:39;44.85;;;18.63;;
78183;SDS011;67442;44.570;18.610;2024-03-02T03:50:07;48.58;;;18.25;;
78183;SDS011;67442;44.570;18.610;2024-03-02T03:52:35;45.05;;;16.38;;
78183;SDS011;67442;44.570;18.610;2024-03-02T03:55:02;49.30;;;16.92;;
78183;SDS011;67442;44.570;18.610;2024-03-02T03:57:30;29.98;;;13.02;;
78183;SDS011;67442;44.570;18.610;2024-03-02T03:59:58;40.78;;;14.90;;
78183;SDS011;67442;44.570;18.610;2024-03-02T04:02:26;40.42;;;16.92;;
78183;SDS011;67442;44.570;18.610;2024-03-02T04:04:53;51.03;;;18.50;;
78183;SDS011;67442;44.570;18.610;2024-03-02T04:07:20;51.97;;;20.60;;
78183;SDS011;67442;44.570;18.610;2024-03-02T04:09:48;59.22;;;22.48;;
78183;SDS011;67442;44.570;18.610;2024-03-02T04:12:15;58.35;;;22.50;;
78183;SDS011;67442;44.570;18.610;2024-03-02T04:14:43;60.60;;;21.63;;
78183;SDS011;67442;44.570;18.610;2024-03-02T04:17:10;48.33;;;19.00;;
78183;SDS011;67442;44.570;18.610;2024-03-02T04:19:37;76.20;;;25.42;;
78183;SDS011;67442;44.570;18.610;2024-03-02T04:22:04;71.65;;;25.65;;
78183;SDS011;67442;44.570;18.610;2024-03-02T04:24:32;73.68;;;25.80;;
78183;SDS011;67442;44.570;18.610;2024-03-02T04:26:59;53.70;;;19.27;;
78183;SDS011;67442;44.570;18.610;2024-03-02T04:29:26;53.42;;;20.35;;
78183;SDS011;67442;44.570;18.610;2024-03-02T04:31:54;75.90;;;31.70;;
78183;SDS011;67442;44.570;18.610;2024-03-02T04:34:21;63.05;;;22.80;;
78183;SDS011;67442;44.570;18.610;2024-03-02T04:36:48;64.45;;;22.75;;
78183;SDS011;67442;44.570;18.610;2024-03-02T04:39:16;53.50;;;21.27;;
78183;SDS011;67442;44.570;18.610;2024-03-02T04:41:43;63.75;;;21.48;;
78183;SDS011;67442;44.570;18.610;2024-03-02T04:44:11;61.60;;;21.88;;
78183;SDS011;67442;44.570;18.610;2024-03-02T04:46:38;53.00;;;18.85;;
78183;SDS011;67442;44.570;18.610;2024-03-02T04:49:05;54.03;;;21.48;;
78183;SDS011;67442;44.570;18.610;2024-03-02T04:51:32;72.55;;;26.30;;
78183;SDS011;67442;44.570;18.610;2024-03-02T04:54:00;89.15;;;27.02;;
78183;SDS011;67442;44.570;18.610;2024-03-02T04:56:27;85.40;;;28.88;;
78183;SDS011;67442;44.570;18.610;2024-03-02T04:58:57;113.63;;;34.67;;
78183;SDS011;67442;44.570;18.610;2024-03-02T05:01:24;86.47;;;29.95;;
78183;SDS011;67442;44.570;18.610;2024-03-02T05:03:52;107.30;;;36.53;;
78183;SDS011;67442;44.570;18.610;2024-03-02T05:06:19;99.35;;;38.97;;
78183;SDS011;67442;44.570;18.610;2024-03-02T05:08:46;80.00;;;31.73;;
78183;SDS011;67442;44.570;18.610;2024-03-02T05:11:14;84.40;;;31.80;;
78183;SDS011;67442;44.570;18.610;2024-03-02T05:13:58;86.07;;;27.50;;
78183;SDS011;67442;44.570;18.610;2024-03-02T05:16:26;118.50;;;36.08;;
78183;SDS011;67442;44.570;18.610;2024-03-02T05:18:53;93.32;;;34.92;;
78183;SDS011;67442;44.570;18.610;2024-03-02T05:21:20;78.50;;;27.60;;
78183;SDS011;67442;44.570;18.610;2024-03-02T05:23:48;71.03;;;28.55;;
78183;SDS011;67442;44.570;18.610;2024-03-02T05:26:19;69.53;;;25.60;;
78183;SDS011;67442;44.570;18.610;2024-03-02T05:28:47;84.93;;;29.90;;
78183;SDS011;67442;44.570;18.610;2024-03-02T05:31:18;72.90;;;26.42;;
78183;SDS011;67442;44.570;18.610;2024-03-02T05:33:46;75.72;;;25.55;;
78183;SDS011;67442;44.570;18.610;2024-03-02T05:36:13;94.60;;;30.60;;
78183;SDS011;67442;44.570;18.610;2024-03-02T05:38:41;78.82;;;29.80;;
78183;SDS011;67442;44.570;18.610;2024-03-02T05:41:09;82.63;;;27.23;;
78183;SDS011;67442;44.570;18.610;2024-03-02T05:43:37;63.42;;;23.77;;
78183;SDS011;67442;44.570;18.610;2024-03-02T05:46:04;57.42;;;21.48;;
78183;SDS011;67442;44.570;18.610;2024-03-02T05:48:32;55.08;;;21.80;;
78183;SDS011;67442;44.570;18.610;2024-03-02T05:51:04;56.90;;;21.40;;
78183;SDS011;67442;44.570;18.610;2024-03-02T05:53:35;217.25;;;52.33;;
78183;SDS011;67442;44.570;18.610;2024-03-02T05:56:06;94.00;;;30.10;;
78183;SDS011;67442;44.570;18.610;2024-03-02T05:58:37;76.72;;;26.75;;
78183;SDS011;67442;44.570;18.610;2024-03-02T06:01:19;90.45;;;30.60;;
78183;SDS011;67442;44.570;18.610;2024-03-02T06:03:56;65.53;;;24.02;;
78183;SDS011;67442;44.570;18.610;2024-03-02T06:06:24;60.55;;;24.25;;
78183;SDS011;67442;44.570;18.610;2024-03-02T06:08:54;58.28;;;22.38;;
78183;SDS011;67442;44.570;18.610;2024-03-02T06:11:26;51.75;;;20.92;;
78183;SDS011;67442;44.570;18.610;2024-03-02T06:14:02;44.72;;;18.92;;
78183;SDS011;67442;44.570;18.610;2024-03-02T06:16:33;36.83;;;15.57;;
78183;SDS011;67442;44.570;18.610;2024-03-02T06:19:05;46.08;;;17.38;;
78183;SDS011;67442;44.570;18.610;2024-03-02T06:21:33;50.10;;;18.83;;
78183;SDS011;67442;44.570;18.610;2024-03-02T06:24:00;50.30;;;18.90;;
78183;SDS011;67442;44.570;18.610;2024-03-02T06:26:28;56.08;;;21.55;;
78183;SDS011;67442;44.570;18.610;2024-03-02T06:28:57;67.28;;;23.77;;
78183;SDS011;67442;44.570;18.610;2024-03-02T06:31:25;71.80;;;26.30;;
78183;SDS011;67442;44.570;18.610;2024-03-02T06:33:52;73.75;;;31.45;;
78183;SDS011;67442;44.570;18.610;2024-03-02T06:36:24;82.30;;;34.30;;
78183;SDS011;67442;44.570;18.610;2024-03-02T06:38:55;128.75;;;44.88;;
78183;SDS011;67442;44.570;18.610;2024-03-02T06:41:22;113.68;;;41.67;;
78183;SDS011;67442;44.570;18.610;2024-03-02T06:43:53;183.02;;;59.17;;
78183;SDS011;67442;44.570;18.610;2024-03-02T06:46:25;176.50;;;60.78;;
78183;SDS011;67442;44.570;18.610;2024-03-02T06:48:52;171.13;;;57.55;;
78183;SDS011;67442;44.570;18.610;2024-03-02T06:51:20;121.78;;;47.67;;
78183;SDS011;67442;44.570;18.610;2024-03-02T06:53:47;103.82;;;42.03;;
78183;SDS011;67442;44.570;18.610;2024-03-02T06:56:15;104.53;;;43.38;;
78183;SDS011;67442;44.570;18.610;2024-03-02T06:58:48;101.88;;;43.63;;
78183;SDS011;67442;44.570;18.610;2024-03-02T07:01:22;88.45;;;36.28;;
78183;SDS011;67442;44.570;18.610;2024-03-02T07:03:52;74.00;;;31.23;;
78183;SDS011;67442;44.570;18.610;2024-03-02T07:06:19;78.78;;;30.08;;
78183;SDS011;67442;44.570;18.610;2024-03-02T07:08:46;77.55;;;34.30;;
78183;SDS011;67442;44.570;18.610;2024-03-02T07:11:14;80.80;;;34.35;;
78183;SDS011;67442;44.570;18.610;2024-03-02T07:13:41;79.78;;;37.33;;
78183;SDS011;67442;44.570;18.610;2024-03-02T07:16:12;83.78;;;31.52;;
78183;SDS011;67442;44.570;18.610;2024-03-02T07:18:58;82.45;;;35.45;;
78183;SDS011;67442;44.570;18.610;2024-03-02T07:21:27;79.13;;;32.70;;
78183;SDS011;67442;44.570;18.610;2024-03-02T07:23:54;83.18;;;33.83;;
78183;SDS011;67442;44.570;18.610;2024-03-02T07:26:22;101.35;;;41.60;;
78183;SDS011;67442;44.570;18.610;2024-03-02T07:28:54;91.50;;;39.97;;
78183;SDS011;67442;44.570;18.610;2024-03-02T07:31:22;64.90;;;28.75;;
78183;SDS011;67442;44.570;18.610;2024-03-02T07:33:49;75.53;;;30.40;;
78183;SDS011;67442;44.570;18.610;2024-03-02T07:36:17;65.53;;;30.05;;
78183;SDS011;67442;44.570;18.610;2024-03-02T07:38:45;53.58;;;22.45;;
78183;SDS011;67442;44.570;18.610;2024-03-02T07:41:18;56.10;;;22.08;;
78183;SDS011;67442;44.570;18.610;2024-03-02T07:43:49;58.13;;;25.05;;
78183;SDS011;67442;44.570;18.610;2024-03-02T07:46:17;55.42;;;24.35;;
78183;SDS011;67442;44.570;18.610;2024-03-02T07:48:48;63.13;;;25.50;;
78183;SDS011;67442;44.570;18.610;2024-03-02T07:51:17;178.70;;;99.43;;
78183;SDS011;67442;44.570;18.610;2024-03-02T07:53:45;87.57;;;38.55;;
78183;SDS011;67442;44.570;18.610;2024-03-02T07:56:12;54.92;;;23.13;;
78183;SDS011;67442;44.570;18.610;2024-03-02T07:58:47;59.45;;;24.98;;
78183;SDS011;67442;44.570;18.610;2024-03-02T08:01:15;56.90;;;22.05;;
78183;SDS011;67442;44.570;18.610;2024-03-02T08:03:43;54.30;;;22.15;;
78183;SDS011;67442;44.570;18.610;2024-03-02T08:06:15;63.63;;;21.92;;
78183;SDS011;67442;44.570;18.610;2024-03-02T08:08:43;53.63;;;21.00;;
78183;SDS011;67442;44.570;18.610;2024-03-02T08:11:11;50.55;;;18.75;;
78183;SDS011;67442;44.570;18.610;2024-03-02T08:13:41;49.08;;;18.40;;
78183;SDS011;67442;44.570;18.610;2024-03-02T08:16:09;57.17;;;19.40;;
78183;SDS011;67442;44.570;18.610;2024-03-02T08:18:37;52.97;;;19.23;;
78183;SDS011;67442;44.570;18.610;2024-03-02T08:21:08;55.03;;;19.50;;
78183;SDS011;67442;44.570;18.610;2024-03-02T08:23:36;61.03;;;20.13;;
78183;SDS011;67442;44.570;18.610;2024-03-02T08:26:09;64.22;;;25.40;;
78183;SDS011;67442;44.570;18.610;2024-03-02T08:28:39;60.10;;;22.90;;
78183;SDS011;67442;44.570;18.610;2024-03-02T08:31:10;59.60;;;23.35;;
78183;SDS011;67442;44.570;18.610;2024-03-02T08:33:38;49.33;;;21.20;;
78183;SDS011;67442;44.570;18.610;2024-03-02T08:36:06;62.30;;;24.67;;
78183;SDS011;67442;44.570;18.610;2024-03-02T08:38:38;55.40;;;21.50;;
78183;SDS011;67442;44.570;18.610;2024-03-02T08:41:06;52.53;;;20.83;;
78183;SDS011;67442;44.570;18.610;2024-03-02T08:43:37;44.65;;;19.63;;
78183;SDS011;67442;44.570;18.610;2024-03-02T08:46:06;49.40;;;20.23;;
78183;SDS011;67442;44.570;18.610;2024-03-02T08:48:34;54.47;;;21.73;;
78183;SDS011;67442;44.570;18.610;2024-03-02T08:51:04;44.22;;;20.58;;
78183;SDS011;67442;44.570;18.610;2024-03-02T08:53:33;50.53;;;19.92;;
78183;SDS011;67442;44.570;18.610;2024-03-02T08:56:00;46.45;;;19.05;;
78183;SDS011;67442;44.570;18.610;2024-03-02T08:58:28;50.45;;;18.80;;
78183;SDS011;67442;44.570;18.610;2024-03-02T09:00:55;43.83;;;18.10;;
78183;SDS011;67442;44.570;18.610;2024-03-02T09:03:27;33.78;;;15.52;;
78183;SDS011;67442;44.570;18.610;2024-03-02T09:05:54;22.13;;;8.85;;
78183;SDS011;67442;44.570;18.610;2024-03-02T09:08:26;9.75;;;4.18;;
78183;SDS011;67442;44.570;18.610;2024-03-02T09:10:57;22.13;;;7.38;;
78183;SDS011;67442;44.570;18.610;2024-03-02T09:13:29;18.92;;;7.70;;
78183;SDS011;67442;44.570;18.610;2024-03-02T09:15:57;21.50;;;7.47;;
78183;SDS011;67442;44.570;18.610;2024-03-02T09:18:24;19.65;;;8.43;;
78183;SDS011;67442;44.570;18.610;2024-03-02T09:20:55;30.27;;;11.30;;
78183;SDS011;67442;44.570;18.610;2024-03-02T09:23:22;23.13;;;8.73;;
78183;SDS011;67442;44.570;18.610;2024-03-02T09:25:53;19.23;;;9.13;;
78183;SDS011;67442;44.570;18.610;2024-03-02T09:28:25;18.85;;;9.65;;
78183;SDS011;67442;44.570;18.610;2024-03-02T09:30:52;26.38;;;10.10;;
78183;SDS011;67442;44.570;18.610;2024-03-02T09:33:19;28.75;;;11.23;;
78183;SDS011;67442;44.570;18.610;2024-03-02T09:35:47;22.63;;;9.55;;
78183;SDS011;67442;44.570;18.610;2024-03-02T09:38:15;30.45;;;9.60;;
78183;SDS011;67442;44.570;18.610;2024-03-02T09:40:42;16.73;;;7.10;;
78183;SDS011;67442;44.570;18.610;2024-03-02T09:43:10;28.25;;;10.70;;
78183;SDS011;67442;44.570;18.610;2024-03-02T09:45:39;19.33;;;7.90;;
78183;SDS011;67442;44.570;18.610;2024-03-02T09:48:07;15.65;;;5.03;;
78183;SDS011;67442;44.570;18.610;2024-03-02T09:50:35;23.52;;;6.65;;
78183;SDS011;67442;44.570;18.610;2024-03-02T09:53:02;19.92;;;6.65;;
78183;SDS011;67442;44.570;18.610;2024-03-02T09:55:29;12.80;;;5.28;;
78183;SDS011;67442;44.570;18.610;2024-03-02T09:57:57;20.42;;;6.75;;
78183;SDS011;67442;44.570;18.610;2024-03-02T10:00:29;24.70;;;9.20;;
78183;SDS011;67442;44.570;18.610;2024-03-02T10:02:57;15.13;;;6.15;;
78183;SDS011;67442;44.570;18.610;2024-03-02T10:05:26;27.00;;;10.23;;
78183;SDS011;67442;44.570;18.610;2024-03-02T10:08:00;19.75;;;5.95;;
78183;SDS011;67442;44.570;18.610;2024-03-02T10:10:38;16.00;;;6.38;;
78183;SDS011;67442;44.570;18.610;2024-03-02T10:13:11;16.67;;;6.20;;
78183;SDS011;67442;44.570;18.610;2024-03-02T10:15:39;17.65;;;4.35;;
78183;SDS011;67442;44.570;18.610;2024-03-02T10:18:11;13.73;;;5.03;;
78183;SDS011;67442;44.570;18.610;2024-03-02T10:20:39;12.32;;;4.40;;
78183;SDS011;67442;44.570;18.610;2024-03-02T10:23:13;36.47;;;12.73;;
78183;SDS011;67442;44.570;18.610;2024-03-02T10:28:13;16.67;;;5.13;;
78183;SDS011;67442;44.570;18.610;2024-03-02T10:30:41;27.05;;;8.50;;
78183;SDS011;67442;44.570;18.610;2024-03-02T10:33:08;15.43;;;5.55;;
78183;SDS011;67442;44.570;18.610;2024-03-02T10:35:40;20.95;;;7.32;;
78183;SDS011;67442;44.570;18.610;2024-03-02T10:38:12;24.17;;;7.30;;
78183;SDS011;67442;44.570;18.610;2024-03-02T10:40:40;21.63;;;8.77;;
78183;SDS011;67442;44.570;18.610;2024-03-02T10:43:17;18.27;;;5.50;;
78183;SDS011;67442;44.570;18.610;2024-03-02T10:45:45;16.02;;;5.55;;
78183;SDS011;67442;44.570;18.610;2024-03-02T10:48:16;28.52;;;7.80;;
78183;SDS011;67442;44.570;18.610;2024-03-02T10:50:44;11.07;;;5.00;;
78183;SDS011;67442;44.570;18.610;2024-03-02T10:53:11;33.38;;;10.23;;
78183;SDS011;67442;44.570;18.610;2024-03-02T10:55:43;13.70;;;5.68;;
78183;SDS011;67442;44.570;18.610;2024-03-02T10:58:11;13.35;;;3.33;;
78183;SDS011;67442;44.570;18.610;2024-03-02T11:00:40;13.23;;;3.83;;
78183;SDS011;67442;44.570;18.610;2024-03-02T11:03:08;12.05;;;4.45;;
78183;SDS011;67442;44.570;18.610;2024-03-02T11:05:38;18.55;;;5.30;;
78183;SDS011;67442;44.570;18.610;2024-03-02T11:08:07;18.33;;;5.75;;
78183;SDS011;67442;44.570;18.610;2024-03-02T11:10:43;19.92;;;5.70;;
78183;SDS011;67442;44.570;18.610;2024-03-02T11:13:13;20.27;;;5.22;;
78183;SDS011;67442;44.570;18.610;2024-03-02T11:15:42;13.77;;;4.13;;
78183;SDS011;67442;44.570;18.610;2024-03-02T11:18:11;10.50;;;4.57;;
78183;SDS011;67442;44.570;18.610;2024-03-02T11:20:43;10.55;;;3.67;;
78183;SDS011;67442;44.570;18.610;2024-03-02T11:23:14;11.15;;;3.80;;
78183;SDS011;67442;44.570;18.610;2024-03-02T11:25:42;13.52;;;3.65;;
78183;SDS011;67442;44.570;18.610;2024-03-02T11:28:15;9.38;;;3.75;;
78183;SDS011;67442;44.570;18.610;2024-03-02T11:31:05;10.00;;;4.15;;
78183;SDS011;67442;44.570;18.610;2024-03-02T11:33:32;11.93;;;3.90;;
78183;SDS011;67442;44.570;18.610;2024-03-02T11:36:06;13.10;;;4.45;;
78183;SDS011;67442;44.570;18.610;2024-03-02T11:38:35;7.82;;;3.17;;
78183;SDS011;67442;44.570;18.610;2024-03-02T11:41:05;10.32;;;2.83;;
78183;SDS011;67442;44.570;18.610;2024-03-02T11:43:37;7.20;;;2.30;;
78183;SDS011;67442;44.570;18.610;2024-03-02T11:46:23;7.40;;;2.25;;
78183;SDS011;67442;44.570;18.610;2024-03-02T11:48:56;36.33;;;9.73;;
78183;SDS011;67442;44.570;18.610;2024-03-02T11:51:27;11.80;;;3.80;;
78183;SDS011;67442;44.570;18.610;2024-03-02T11:53:59;13.02;;;3.90;;
78183;SDS011;67442;44.570;18.610;2024-03-02T11:56:28;8.20;;;3.20;;
78183;SDS011;67442;44.570;18.610;2024-03-02T11:58:58;13.05;;;3.63;;
78183;SDS011;67442;44.570;18.610;2024-03-02T12:01:26;15.48;;;4.18;;
78183;SDS011;67442;44.570;18.610;2024-03-02T12:03:58;16.20;;;6.47;;
78183;SDS011;67442;44.570;18.610;2024-03-02T12:06:27;10.40;;;3.45;;
78183;SDS011;67442;44.570;18.610;2024-03-02T12:08:55;6.45;;;3.20;;
78183;SDS011;67442;44.570;18.610;2024-03-02T12:11:22;14.30;;;4.57;;
78183;SDS011;67442;44.570;18.610;2024-03-02T12:13:54;9.50;;;3.80;;
78183;SDS011;67442;44.570;18.610;2024-03-02T12:16:25;7.70;;;3.70;;
78183;SDS011;67442;44.570;18.610;2024-03-02T12:18:52;13.63;;;4.70;;
78183;SDS011;67442;44.570;18.610;2024-03-02T12:21:23;8.05;;;3.13;;
78183;SDS011;67442;44.570;18.610;2024-03-02T12:23:53;10.50;;;3.88;;
78183;SDS011;67442;44.570;18.610;2024-03-02T12:26:21;9.50;;;3.60;;
78183;SDS011;67442;44.570;18.610;2024-03-02T12:28:50;18.33;;;3.47;;
78183;SDS011;67442;44.570;18.610;2024-03-02T12:31:17;20.45;;;6.00;;
78183;SDS011;67442;44.570;18.610;2024-03-02T12:33:46;9.32;;;3.80;;
78183;SDS011;67442;44.570;18.610;2024-03-02T12:36:13;8.73;;;3.80;;
78183;SDS011;67442;44.570;18.610;2024-03-02T12:38:44;10.88;;;3.67;;
78183;SDS011;67442;44.570;18.610;2024-03-02T12:41:15;13.35;;;3.90;;
78183;SDS011;67442;44.570;18.610;2024-03-02T12:43:42;11.13;;;4.57;;
78183;SDS011;67442;44.570;18.610;2024-03-02T12:46:14;12.07;;;5.82;;
78183;SDS011;67442;44.570;18.610;2024-03-02T12:48:46;16.92;;;5.68;;
78183;SDS011;67442;44.570;18.610;2024-03-02T12:51:13;11.88;;;5.22;;
78183;SDS011;67442;44.570;18.610;2024-03-02T12:53:40;15.20;;;5.28;;
78183;SDS011;67442;44.570;18.610;2024-03-02T12:56:08;16.92;;;5.88;;
78183;SDS011;67442;44.570;18.610;2024-03-02T12:58:40;20.30;;;7.07;;
78183;SDS011;67442;44.570;18.610;2024-03-02T13:01:07;19.23;;;4.47;;
78183;SDS011;67442;44.570;18.610;2024-03-02T13:03:36;10.15;;;4.35;;
78183;SDS011;67442;44.570;18.610;2024-03-02T13:06:05;9.70;;;4.45;;
78183;SDS011;67442;44.570;18.610;2024-03-02T13:08:36;9.27;;;4.43;;
78183;SDS011;67442;44.570;18.610;2024-03-02T13:11:08;8.93;;;4.35;;
78183;SDS011;67442;44.570;18.610;2024-03-02T13:13:37;9.77;;;4.18;;
78183;SDS011;67442;44.570;18.610;2024-03-02T13:16:11;9.57;;;3.38;;
78183;SDS011;67442;44.570;18.610;2024-03-02T13:18:38;10.70;;;4.38;;
78183;SDS011;67442;44.570;18.610;2024-03-02T13:21:25;15.25;;;4.28;;
78183;SDS011;67442;44.570;18.610;2024-03-02T13:23:52;5.93;;;2.60;;
78183;SDS011;67442;44.570;18.610;2024-03-02T13:26:24;9.25;;;2.63;;
78183;SDS011;67442;44.570;18.610;2024-03-02T13:28:51;6.03;;;2.13;;
78183;SDS011;67442;44.570;18.610;2024-03-02T13:31:18;6.45;;;2.30;;
78183;SDS011;67442;44.570;18.610;2024-03-02T13:33:46;7.30;;;2.67;;
78183;SDS011;67442;44.570;18.610;2024-03-02T13:36:13;9.10;;;2.50;;
78183;SDS011;67442;44.570;18.610;2024-03-02T13:38:40;10.75;;;2.50;;
78183;SDS011;67442;44.570;18.610;2024-03-02T13:41:11;9.90;;;2.95;;
78183;SDS011;67442;44.570;18.610;2024-03-02T13:43:38;9.02;;;2.25;;
78183;SDS011;67442;44.570;18.610;2024-03-02T13:46:06;7.20;;;1.92;;
78183;SDS011;67442;44.570;18.610;2024-03-02T13:48:35;7.07;;;2.20;;
78183;SDS011;67442;44.570;18.610;2024-03-02T13:51:03;4.40;;;2.13;;
78183;SDS011;67442;44.570;18.610;2024-03-02T13:53:30;15.18;;;5.38;;
78183;SDS011;67442;44.570;18.610;2024-03-02T13:56:02;11.20;;;3.10;;
78183;SDS011;67442;44.570;18.610;2024-03-02T13:58:30;7.53;;;3.20;;
78183;SDS011;67442;44.570;18.610;2024-03-02T14:00:58;8.68;;;2.92;;
78183;SDS011;67442;44.570;18.610;2024-03-02T14:03:25;8.57;;;2.92;;
78183;SDS011;67442;44.570;18.610;2024-03-02T14:05:57;6.35;;;2.97;;
78183;SDS011;67442;44.570;18.610;2024-03-02T14:08:24;8.85;;;3.30;;
78183;SDS011;67442;44.570;18.610;2024-03-02T14:10:56;6.97;;;3.20;;
78183;SDS011;67442;44.570;18.610;2024-03-02T14:13:28;10.13;;;3.28;;
78183;SDS011;67442;44.570;18.610;2024-03-02T14:15:55;7.43;;;3.15;;
78183;SDS011;67442;44.570;18.610;2024-03-02T14:18:23;5.50;;;2.33;;
78183;SDS011;67442;44.570;18.610;2024-03-02T14:20:51;6.88;;;2.67;;
78183;SDS011;67442;44.570;18.610;2024-03-02T14:23:18;5.03;;;2.20;;
78183;SDS011;67442;44.570;18.610;2024-03-02T14:25:50;8.65;;;2.90;;
78183;SDS011;67442;44.570;18.610;2024-03-02T14:28:17;7.57;;;2.60;;
78183;SDS011;67442;44.570;18.610;2024-03-02T14:30:45;8.07;;;2.47;;